Laurie Ann Reinauer — WDF2460 — position and weather

sailwx.info

Track history (hours):
 
Tides and Currents Weather Stations Pressure Air Temp Water Temp Dewpoint Dewpoint Depression Visibility Wind Speed Wind Dir Waves Ship Positions

Laurie Ann Reinauer

Owner: HA REINAUER INC., Richmond, NY. More information available from US FCC via Universal Licensing System and Coast Guard Vessel Documentation Center.

Last reported at 2017-Oct-07 06:41 UTC. Time now 2017-Oct-17 11:22 UTC.
Position N 25°19' W 080°04'.
Warning: this ship's position is 10 days out of date.

Length 129 m; draft 4.9 m.

Type: . MMSI: 367428330.

Date/timePositionNaut miles runAvg speedWind from/ knotsBaromVisibWave heightAir tempDewpointWater temp
2017-Oct-07 06:41N 25°19' W 080°04'2 9.4
2017-Oct-07 06:30N 25°20' W 080°03'5 9.3
2017-Oct-07 06:00N 25°25' W 080°02'5 9.7
2017-Oct-07 05:30N 25°30' W 080°03'5 9.8
2017-Oct-07 05:00N 25°34' W 080°03'5 9.8
2017-Oct-07 04:30N 25°39' W 080°03'5 9.7
2017-Oct-07 04:00N 25°44' W 080°04'5 9.2
2017-Oct-07 03:30N 25°49' W 080°04'5 9.1
2017-Oct-07 03:00N 25°53' W 080°04'5 9.1
2017-Oct-07 02:30N 25°58' W 080°04'5 9.3
2017-Oct-07 02:00N 26°02' W 080°04'5 9.4
2017-Oct-07 01:30N 26°07' W 080°03'5 9.6
2017-Oct-07 01:00N 26°12' W 080°02'5 9.4
2017-Oct-07 00:30N 26°16' W 080°02'5 9.1
2017-Oct-07 00:00N 26°21' W 080°01'5 9.2
2017-Oct-06 23:30N 26°26' W 080°01'5 9.1
2017-Oct-06 23:00N 26°30' W 080°00'17 8.1
2017-Oct-06 20:58N 26°47' W 079°60'3 7.2
2017-Oct-06 20:30N 26°50' W 079°60'3 6.5
2017-Oct-06 20:00N 26°53' W 080°00'3 6.6
2017-Oct-06 19:30N 26°56' W 080°00'3 6.8
2017-Oct-06 19:00N 26°60' W 080°02'3 6.9
2017-Oct-06 18:30N 27°03' W 080°03'286 6.9
2017-Oct-05 00:57N 31°45' W 080°58'11 9.6
2017-Oct-04 23:51N 31°53' W 080°51'3 9.9
2017-Oct-04 23:30N 31°56' W 080°48'5 9.8
2017-Oct-04 23:00N 31°59' W 080°43'5 9.9
2017-Oct-04 22:30N 32°01' W 080°38'510.0
2017-Oct-04 21:58N 32°04' W 080°33'  
2017-Oct-02 12:23N 34°27' W 076°57'4 9.9
2017-Oct-02 12:00N 34°30' W 076°54'5 9.8
2017-Oct-02 11:30N 34°33' W 076°50'5 9.7
2017-Oct-02 11:00N 34°37' W 076°46'5 9.2
2017-Oct-02 10:30N 34°41' W 076°43'0 0.2
2017-Oct-02 09:58N 34°41' W 076°43'0 0.0
2017-Oct-02 09:28N 34°41' W 076°43'0 0.0
2017-Oct-02 08:58N 34°41' W 076°43'0 0.0
2017-Oct-02 08:25N 34°41' W 076°43'0 0.0
2017-Oct-02 07:58N 34°41' W 076°43'0 0.0
2017-Oct-02 07:28N 34°41' W 076°43'0 0.0
2017-Oct-02 06:58N 34°41' W 076°43'0 0.0
2017-Oct-02 06:28N 34°41' W 076°43'0 0.0
2017-Oct-02 05:58N 34°41' W 076°43'0 0.0
2017-Oct-02 05:28N 34°41' W 076°43'0 0.0
2017-Oct-02 04:58N 34°41' W 076°43'0 0.0
2017-Oct-02 04:28N 34°41' W 076°43'0 0.0
2017-Oct-02 03:58N 34°41' W 076°43'0 0.0
2017-Oct-02 03:25N 34°41' W 076°43'0 0.0
2017-Oct-02 02:58N 34°41' W 076°43'0 0.0
2017-Oct-02 02:28N 34°41' W 076°43'0 0.0
2017-Oct-02 01:58N 34°41' W 076°43'0 0.0
2017-Oct-02 01:28N 34°41' W 076°43'0 0.0
2017-Oct-02 00:58N 34°41' W 076°43'0 0.0
2017-Oct-02 00:28N 34°41' W 076°43'0 0.0
2017-Oct-01 23:58N 34°41' W 076°43'0 0.0
2017-Oct-01 23:28N 34°41' W 076°43'0 0.0
2017-Oct-01 22:58N 34°41' W 076°43'0 0.1
2017-Oct-01 22:25N 34°41' W 076°43'0 0.1
2017-Oct-01 21:58N 34°41' W 076°43'0 0.0
2017-Oct-01 21:28N 34°41' W 076°43'0 0.0
2017-Oct-01 20:58N 34°41' W 076°43'0 0.0
2017-Oct-01 20:28N 34°41' W 076°43'0 0.0
2017-Oct-01 19:58N 34°41' W 076°43'0 0.0
2017-Oct-01 19:28N 34°41' W 076°43'0 0.1
2017-Oct-01 18:58N 34°41' W 076°43'0 0.0
2017-Oct-01 18:28N 34°41' W 076°43'0 0.0
2017-Oct-01 17:58N 34°41' W 076°43'0 0.0
2017-Oct-01 17:28N 34°41' W 076°43'0 0.0
2017-Oct-01 16:58N 34°41' W 076°43'0 0.0
2017-Oct-01 16:28N 34°41' W 076°43'0 0.0
2017-Oct-01 15:58N 34°41' W 076°43'0 0.0
2017-Oct-01 15:28N 34°41' W 076°43'0 0.0
2017-Oct-01 14:58N 34°41' W 076°43'0 0.0
2017-Oct-01 14:28N 34°41' W 076°43'0 0.0
2017-Oct-01 13:58N 34°41' W 076°43'0 0.0
2017-Oct-01 13:28N 34°41' W 076°43'0 0.0
2017-Oct-01 12:58N 34°41' W 076°43'0 0.0
2017-Oct-01 12:28N 34°41' W 076°43'0 0.0
2017-Oct-01 11:58N 34°41' W 076°43'0 0.0
2017-Oct-01 11:28N 34°41' W 076°43'0 0.0
2017-Oct-01 10:58N 34°41' W 076°43'0 0.0
2017-Oct-01 10:28N 34°41' W 076°43'0 0.0
2017-Oct-01 09:58N 34°41' W 076°43'0 0.0
2017-Oct-01 09:28N 34°41' W 076°43'0 0.0
2017-Oct-01 08:58N 34°41' W 076°43'0 0.1
2017-Oct-01 08:28N 34°41' W 076°43'0 0.0
2017-Oct-01 07:58N 34°41' W 076°43'0 0.0
2017-Oct-01 07:28N 34°41' W 076°43'0 0.0
2017-Oct-01 06:58N 34°41' W 076°43'0 0.0
2017-Oct-01 06:28N 34°41' W 076°43'0 0.0
2017-Oct-01 05:58N 34°41' W 076°43'0 0.0
2017-Oct-01 05:28N 34°41' W 076°43'0 0.0
2017-Oct-01 04:58N 34°41' W 076°43'0 0.0
2017-Oct-01 04:28N 34°41' W 076°43'0 0.0
2017-Oct-01 03:58N 34°41' W 076°43'0 0.0
2017-Oct-01 03:28N 34°41' W 076°43'0 0.0
2017-Oct-01 02:58N 34°41' W 076°43'236 5.5
2017-Sep-29 08:20N 38°16' W 074°42'76 9.6
2017-Sep-29 00:25N 39°27' W 074°10'6 9.5
2017-Sep-28 23:49N 39°32' W 074°06'3 9.6
2017-Sep-28 23:29N 39°35' W 074°05'5 9.7
2017-Sep-28 22:57N 39°40' W 074°02'4 9.6
2017-Sep-28 22:30N 39°44' W 073°60'8 9.6
2017-Sep-28 21:43N 39°51' W 073°59'33 9.8
2017-Sep-28 18:18N 40°24' W 073°54'3 9.3
2017-Sep-28 17:58N 40°27' W 073°55'4 8.2
2017-Sep-28 17:29N 40°30' W 073°58'4 8.2
2017-Sep-28 17:00N 40°33' W 074°02'5 9.3
2017-Sep-28 16:30N 40°38' W 074°03'2 4.0
2017-Sep-28 15:58N 40°40' W 074°03'0 0.0
2017-Sep-28 15:28N 40°40' W 074°03'0 0.0
2017-Sep-28 14:58N 40°40' W 074°03'0 0.0
2017-Sep-28 14:28N 40°40' W 074°03'0 0.0
2017-Sep-28 13:58N 40°40' W 074°03'0 0.0
2017-Sep-28 13:28N 40°40' W 074°03'0 0.0
2017-Sep-28 12:58N 40°40' W 074°03'0 0.0
2017-Sep-28 12:28N 40°40' W 074°03'0 0.0
2017-Sep-28 11:58N 40°40' W 074°03'0 0.0
2017-Sep-28 11:28N 40°40' W 074°03'0 0.0
2017-Sep-28 10:58N 40°40' W 074°03'0 0.0
2017-Sep-28 10:28N 40°40' W 074°03'0 0.0
2017-Sep-28 09:58N 40°40' W 074°03'0 0.0
2017-Sep-28 09:28N 40°40' W 074°03'0 0.0
2017-Sep-28 08:58N 40°40' W 074°03'0 0.1
2017-Sep-28 08:28N 40°40' W 074°03'0 0.1
2017-Sep-28 07:58N 40°40' W 074°03'0 0.1
2017-Sep-28 07:28N 40°40' W 074°03'0 0.0
2017-Sep-28 06:58N 40°40' W 074°03'0 0.0
2017-Sep-28 06:28N 40°40' W 074°03'0 0.2
2017-Sep-28 05:58N 40°40' W 074°03'0 0.1
2017-Sep-28 05:28N 40°40' W 074°03'0 0.1
2017-Sep-28 04:58N 40°40' W 074°03'0 0.1
2017-Sep-28 04:28N 40°40' W 074°03'0 0.1
2017-Sep-28 03:58N 40°40' W 074°03'0 0.0
2017-Sep-28 03:28N 40°40' W 074°03'0 0.0
2017-Sep-28 02:58N 40°40' W 074°03'0 0.0
2017-Sep-28 02:25N 40°40' W 074°03'0 0.0
2017-Sep-28 01:58N 40°40' W 074°03'0 0.0
2017-Sep-28 01:28N 40°40' W 074°03'0 0.0
2017-Sep-28 00:58N 40°40' W 074°03'0 0.0
2017-Sep-28 00:28N 40°40' W 074°03'0 0.0
2017-Sep-27 23:58N 40°40' W 074°03'0 0.1
2017-Sep-27 23:28N 40°40' W 074°03'0 0.0
2017-Sep-27 22:58N 40°40' W 074°03'0 0.1
2017-Sep-27 22:28N 40°40' W 074°03'0 0.0
2017-Sep-27 21:58N 40°40' W 074°03'0 0.0
2017-Sep-27 21:28N 40°40' W 074°03'0 0.3
2017-Sep-27 20:58N 40°40' W 074°03'0 0.0
2017-Sep-27 20:28N 40°40' W 074°03'0 0.1
2017-Sep-27 19:58N 40°40' W 074°03'0 0.0
2017-Sep-27 19:28N 40°40' W 074°03'0 0.0
2017-Sep-27 18:58N 40°40' W 074°03'0 0.0
2017-Sep-27 18:28N 40°40' W 074°03'0 0.0
2017-Sep-27 17:58N 40°40' W 074°03'0 0.0
2017-Sep-27 17:28N 40°40' W 074°03'0 0.0
2017-Sep-27 16:58N 40°40' W 074°03'0 0.1
2017-Sep-27 16:28N 40°40' W 074°03'0 0.2
2017-Sep-27 15:58N 40°40' W 074°03'0 0.0
2017-Sep-27 15:25N 40°40' W 074°03'0 0.1
2017-Sep-27 14:58N 40°40' W 074°03'0 0.0
2017-Sep-27 14:28N 40°40' W 074°03'0 0.0
2017-Sep-27 13:58N 40°40' W 074°03'0 0.0
2017-Sep-27 13:28N 40°40' W 074°03'0 0.0
2017-Sep-27 12:58N 40°40' W 074°03'0 0.0
2017-Sep-27 12:28N 40°40' W 074°03'0 0.0
2017-Sep-27 11:58N 40°40' W 074°03'0 0.0
2017-Sep-27 11:28N 40°40' W 074°03'0 0.0
2017-Sep-27 10:58N 40°40' W 074°03'0 0.0
2017-Sep-27 10:28N 40°40' W 074°03'0 0.0
2017-Sep-27 09:58N 40°40' W 074°03'0 0.0
2017-Sep-27 09:28N 40°40' W 074°03'0 0.0
2017-Sep-27 08:58N 40°40' W 074°03'0 0.1
2017-Sep-27 08:28N 40°40' W 074°03'0 0.2
2017-Sep-27 07:58N 40°40' W 074°03'0 0.1
2017-Sep-27 07:28N 40°40' W 074°03'0 0.0
2017-Sep-27 06:58N 40°40' W 074°03'  
Track history (hours):
 
Tides and Currents Weather Stations Pressure Air Temp Water Temp Dewpoint Dewpoint Depression Visibility Wind Speed Wind Dir Waves Ship Positions

Laurie Ann Reinauer

Owner: HA REINAUER INC., Richmond, NY. More information available from US FCC via Universal Licensing System and Coast Guard Vessel Documentation Center.

Last reported at 2017-Oct-07 06:41 UTC. Time now 2017-Oct-17 11:22 UTC.
Position N 25°19' W 080°04'.
Warning: this ship's position is 10 days out of date.

Length 129 m; draft 4.9 m.

Type: . MMSI: 367428330.

Date/timePositionNaut miles runAvg speedWind from/ knotsBaromVisibWave heightAir tempDewpointWater temp
2017-Oct-07 06:41N 25°19' W 080°04'2 9.4
2017-Oct-07 06:30N 25°20' W 080°03'5 9.3
2017-Oct-07 06:00N 25°25' W 080°02'5 9.7
2017-Oct-07 05:30N 25°30' W 080°03'5 9.8
2017-Oct-07 05:00N 25°34' W 080°03'5 9.8
2017-Oct-07 04:30N 25°39' W 080°03'5 9.7
2017-Oct-07 04:00N 25°44' W 080°04'5 9.2
2017-Oct-07 03:30N 25°49' W 080°04'5 9.1
2017-Oct-07 03:00N 25°53' W 080°04'5 9.1
2017-Oct-07 02:30N 25°58' W 080°04'5 9.3
2017-Oct-07 02:00N 26°02' W 080°04'5 9.4
2017-Oct-07 01:30N 26°07' W 080°03'5 9.6
2017-Oct-07 01:00N 26°12' W 080°02'5 9.4
2017-Oct-07 00:30N 26°16' W 080°02'5 9.1
2017-Oct-07 00:00N 26°21' W 080°01'5 9.2
2017-Oct-06 23:30N 26°26' W 080°01'5 9.1
2017-Oct-06 23:00N 26°30' W 080°00'17 8.1
2017-Oct-06 20:58N 26°47' W 079°60'3 7.2
2017-Oct-06 20:30N 26°50' W 079°60'3 6.5
2017-Oct-06 20:00N 26°53' W 080°00'3 6.6
2017-Oct-06 19:30N 26°56' W 080°00'3 6.8
2017-Oct-06 19:00N 26°60' W 080°02'3 6.9
2017-Oct-06 18:30N 27°03' W 080°03'286 6.9
2017-Oct-05 00:57N 31°45' W 080°58'11 9.6
2017-Oct-04 23:51N 31°53' W 080°51'3 9.9
2017-Oct-04 23:30N 31°56' W 080°48'5 9.8
2017-Oct-04 23:00N 31°59' W 080°43'5 9.9
2017-Oct-04 22:30N 32°01' W 080°38'510.0
2017-Oct-04 21:58N 32°04' W 080°33'  
2017-Oct-02 12:23N 34°27' W 076°57'4 9.9
2017-Oct-02 12:00N 34°30' W 076°54'5 9.8
2017-Oct-02 11:30N 34°33' W 076°50'5 9.7
2017-Oct-02 11:00N 34°37' W 076°46'5 9.2
2017-Oct-02 10:30N 34°41' W 076°43'0 0.2
2017-Oct-02 09:58N 34°41' W 076°43'0 0.0
2017-Oct-02 09:28N 34°41' W 076°43'0 0.0
2017-Oct-02 08:58N 34°41' W 076°43'0 0.0
2017-Oct-02 08:25N 34°41' W 076°43'0 0.0
2017-Oct-02 07:58N 34°41' W 076°43'0 0.0
2017-Oct-02 07:28N 34°41' W 076°43'0 0.0
2017-Oct-02 06:58N 34°41' W 076°43'0 0.0
2017-Oct-02 06:28N 34°41' W 076°43'0 0.0
2017-Oct-02 05:58N 34°41' W 076°43'0 0.0
2017-Oct-02 05:28N 34°41' W 076°43'0 0.0
2017-Oct-02 04:58N 34°41' W 076°43'0 0.0
2017-Oct-02 04:28N 34°41' W 076°43'0 0.0
2017-Oct-02 03:58N 34°41' W 076°43'0 0.0
2017-Oct-02 03:25N 34°41' W 076°43'0 0.0
2017-Oct-02 02:58N 34°41' W 076°43'0 0.0
2017-Oct-02 02:28N 34°41' W 076°43'0 0.0
2017-Oct-02 01:58N 34°41' W 076°43'0 0.0
2017-Oct-02 01:28N 34°41' W 076°43'0 0.0
2017-Oct-02 00:58N 34°41' W 076°43'0 0.0
2017-Oct-02 00:28N 34°41' W 076°43'0 0.0
2017-Oct-01 23:58N 34°41' W 076°43'0 0.0
2017-Oct-01 23:28N 34°41' W 076°43'0 0.0
2017-Oct-01 22:58N 34°41' W 076°43'0 0.1
2017-Oct-01 22:25N 34°41' W 076°43'0 0.1
2017-Oct-01 21:58N 34°41' W 076°43'0 0.0
2017-Oct-01 21:28N 34°41' W 076°43'0 0.0
2017-Oct-01 20:58N 34°41' W 076°43'0 0.0
2017-Oct-01 20:28N 34°41' W 076°43'0 0.0
2017-Oct-01 19:58N 34°41' W 076°43'0 0.0
2017-Oct-01 19:28N 34°41' W 076°43'0 0.1
2017-Oct-01 18:58N 34°41' W 076°43'0 0.0
2017-Oct-01 18:28N 34°41' W 076°43'0 0.0
2017-Oct-01 17:58N 34°41' W 076°43'0 0.0
2017-Oct-01 17:28N 34°41' W 076°43'0 0.0
2017-Oct-01 16:58N 34°41' W 076°43'0 0.0
2017-Oct-01 16:28N 34°41' W 076°43'0 0.0
2017-Oct-01 15:58N 34°41' W 076°43'0 0.0
2017-Oct-01 15:28N 34°41' W 076°43'0 0.0
2017-Oct-01 14:58N 34°41' W 076°43'0 0.0
2017-Oct-01 14:28N 34°41' W 076°43'0 0.0
2017-Oct-01 13:58N 34°41' W 076°43'0 0.0
2017-Oct-01 13:28N 34°41' W 076°43'0 0.0
2017-Oct-01 12:58N 34°41' W 076°43'0 0.0
2017-Oct-01 12:28N 34°41' W 076°43'0 0.0
2017-Oct-01 11:58N 34°41' W 076°43'0 0.0
2017-Oct-01 11:28N 34°41' W 076°43'0 0.0
2017-Oct-01 10:58N 34°41' W 076°43'0 0.0
2017-Oct-01 10:28N 34°41' W 076°43'0 0.0
2017-Oct-01 09:58N 34°41' W 076°43'0 0.0
2017-Oct-01 09:28N 34°41' W 076°43'0 0.0
2017-Oct-01 08:58N 34°41' W 076°43'0 0.1
2017-Oct-01 08:28N 34°41' W 076°43'0 0.0
2017-Oct-01 07:58N 34°41' W 076°43'0 0.0
2017-Oct-01 07:28N 34°41' W 076°43'0 0.0
2017-Oct-01 06:58N 34°41' W 076°43'0 0.0
2017-Oct-01 06:28N 34°41' W 076°43'0 0.0
2017-Oct-01 05:58N 34°41' W 076°43'0 0.0
2017-Oct-01 05:28N 34°41' W 076°43'0 0.0
2017-Oct-01 04:58N 34°41' W 076°43'0 0.0
2017-Oct-01 04:28N 34°41' W 076°43'0 0.0
2017-Oct-01 03:58N 34°41' W 076°43'0 0.0
2017-Oct-01 03:28N 34°41' W 076°43'0 0.0
2017-Oct-01 02:58N 34°41' W 076°43'236 5.5
2017-Sep-29 08:20N 38°16' W 074°42'76 9.6
2017-Sep-29 00:25N 39°27' W 074°10'6 9.5
2017-Sep-28 23:49N 39°32' W 074°06'3 9.6
2017-Sep-28 23:29N 39°35' W 074°05'5 9.7
2017-Sep-28 22:57N 39°40' W 074°02'4 9.6
2017-Sep-28 22:30N 39°44' W 073°60'8 9.6
2017-Sep-28 21:43N 39°51' W 073°59'33 9.8
2017-Sep-28 18:18N 40°24' W 073°54'3 9.3
2017-Sep-28 17:58N 40°27' W 073°55'4 8.2
2017-Sep-28 17:29N 40°30' W 073°58'4 8.2
2017-Sep-28 17:00N 40°33' W 074°02'5 9.3
2017-Sep-28 16:30N 40°38' W 074°03'2 4.0
2017-Sep-28 15:58N 40°40' W 074°03'0 0.0
2017-Sep-28 15:28N 40°40' W 074°03'0 0.0
2017-Sep-28 14:58N 40°40' W 074°03'0 0.0
2017-Sep-28 14:28N 40°40' W 074°03'0 0.0
2017-Sep-28 13:58N 40°40' W 074°03'0 0.0
2017-Sep-28 13:28N 40°40' W 074°03'0 0.0
2017-Sep-28 12:58N 40°40' W 074°03'0 0.0
2017-Sep-28 12:28N 40°40' W 074°03'0 0.0
2017-Sep-28 11:58N 40°40' W 074°03'0 0.0
2017-Sep-28 11:28N 40°40' W 074°03'0 0.0
2017-Sep-28 10:58N 40°40' W 074°03'0 0.0
2017-Sep-28 10:28N 40°40' W 074°03'0 0.0
2017-Sep-28 09:58N 40°40' W 074°03'0 0.0
2017-Sep-28 09:28N 40°40' W 074°03'0 0.0
2017-Sep-28 08:58N 40°40' W 074°03'0 0.1
2017-Sep-28 08:28N 40°40' W 074°03'0 0.1
2017-Sep-28 07:58N 40°40' W 074°03'0 0.1
2017-Sep-28 07:28N 40°40' W 074°03'0 0.0
2017-Sep-28 06:58N 40°40' W 074°03'0 0.0
2017-Sep-28 06:28N 40°40' W 074°03'0 0.2
2017-Sep-28 05:58N 40°40' W 074°03'0 0.1
2017-Sep-28 05:28N 40°40' W 074°03'0 0.1
2017-Sep-28 04:58N 40°40' W 074°03'0 0.1
2017-Sep-28 04:28N 40°40' W 074°03'0 0.1
2017-Sep-28 03:58N 40°40' W 074°03'0 0.0
2017-Sep-28 03:28N 40°40' W 074°03'0 0.0
2017-Sep-28 02:58N 40°40' W 074°03'0 0.0
2017-Sep-28 02:25N 40°40' W 074°03'0 0.0
2017-Sep-28 01:58N 40°40' W 074°03'0 0.0
2017-Sep-28 01:28N 40°40' W 074°03'0 0.0
2017-Sep-28 00:58N 40°40' W 074°03'0 0.0
2017-Sep-28 00:28N 40°40' W 074°03'0 0.0
2017-Sep-27 23:58N 40°40' W 074°03'0 0.1
2017-Sep-27 23:28N 40°40' W 074°03'0 0.0
2017-Sep-27 22:58N 40°40' W 074°03'0 0.1
2017-Sep-27 22:28N 40°40' W 074°03'0 0.0
2017-Sep-27 21:58N 40°40' W 074°03'0 0.0
2017-Sep-27 21:28N 40°40' W 074°03'0 0.3
2017-Sep-27 20:58N 40°40' W 074°03'0 0.0
2017-Sep-27 20:28N 40°40' W 074°03'0 0.1
2017-Sep-27 19:58N 40°40' W 074°03'0 0.0
2017-Sep-27 19:28N 40°40' W 074°03'0 0.0
2017-Sep-27 18:58N 40°40' W 074°03'0 0.0
2017-Sep-27 18:28N 40°40' W 074°03'0 0.0
2017-Sep-27 17:58N 40°40' W 074°03'0 0.0
2017-Sep-27 17:28N 40°40' W 074°03'0 0.0
2017-Sep-27 16:58N 40°40' W 074°03'0 0.1
2017-Sep-27 16:28N 40°40' W 074°03'0 0.2
2017-Sep-27 15:58N 40°40' W 074°03'0 0.0
2017-Sep-27 15:25N 40°40' W 074°03'0 0.1
2017-Sep-27 14:58N 40°40' W 074°03'0 0.0
2017-Sep-27 14:28N 40°40' W 074°03'0 0.0
2017-Sep-27 13:58N 40°40' W 074°03'0 0.0
2017-Sep-27 13:28N 40°40' W 074°03'0 0.0
2017-Sep-27 12:58N 40°40' W 074°03'0 0.0
2017-Sep-27 12:28N 40°40' W 074°03'0 0.0
2017-Sep-27 11:58N 40°40' W 074°03'0 0.0
2017-Sep-27 11:28N 40°40' W 074°03'0 0.0
2017-Sep-27 10:58N 40°40' W 074°03'0 0.0
2017-Sep-27 10:28N 40°40' W 074°03'0 0.0
2017-Sep-27 09:58N 40°40' W 074°03'0 0.0
2017-Sep-27 09:28N 40°40' W 074°03'0 0.0
2017-Sep-27 08:58N 40°40' W 074°03'0 0.1
2017-Sep-27 08:28N 40°40' W 074°03'0 0.2
2017-Sep-27 07:58N 40°40' W 074°03'0 0.1
2017-Sep-27 07:28N 40°40' W 074°03'0 0.0
2017-Sep-27 06:58N 40°40' W 074°03'  

Dump ship's entire track history